sensor_id;sensor_type;location;lat;lon;timestamp;P1;durP1;ratioP1;P2;durP2;ratioP2
35372;SDS011;21476;51.652;7.852;2022-11-20T00:01:13;47.55;;;27.02;;
35372;SDS011;21476;51.652;7.852;2022-11-20T00:03:41;48.72;;;25.27;;
35372;SDS011;21476;51.652;7.852;2022-11-20T00:06:07;44.42;;;24.48;;
35372;SDS011;21476;51.652;7.852;2022-11-20T00:08:35;46.30;;;24.17;;
35372;SDS011;21476;51.652;7.852;2022-11-20T00:11:08;45.33;;;24.80;;
35372;SDS011;21476;51.652;7.852;2022-11-20T00:13:35;42.55;;;22.42;;
35372;SDS011;21476;51.652;7.852;2022-11-20T00:16:02;41.28;;;23.20;;
35372;SDS011;21476;51.652;7.852;2022-11-20T00:18:29;41.63;;;23.30;;
35372;SDS011;21476;51.652;7.852;2022-11-20T00:21:00;35.67;;;21.20;;
35372;SDS011;21476;51.652;7.852;2022-11-20T00:23:30;37.92;;;21.65;;
35372;SDS011;21476;51.652;7.852;2022-11-20T00:25:56;37.38;;;20.70;;
35372;SDS011;21476;51.652;7.852;2022-11-20T00:28:25;46.08;;;23.73;;
35372;SDS011;21476;51.652;7.852;2022-11-20T00:30:51;52.53;;;25.40;;
35372;SDS011;21476;51.652;7.852;2022-11-20T00:33:17;65.18;;;31.40;;
35372;SDS011;21476;51.652;7.852;2022-11-20T00:35:42;43.75;;;23.02;;
35372;SDS011;21476;51.652;7.852;2022-11-20T00:38:08;34.88;;;20.38;;
35372;SDS011;21476;51.652;7.852;2022-11-20T00:40:33;38.38;;;21.33;;
35372;SDS011;21476;51.652;7.852;2022-11-20T00:42:59;35.05;;;20.48;;
35372;SDS011;21476;51.652;7.852;2022-11-20T00:45:24;36.95;;;19.65;;
35372;SDS011;21476;51.652;7.852;2022-11-20T00:47:50;46.10;;;25.30;;
35372;SDS011;21476;51.652;7.852;2022-11-20T00:50:16;36.67;;;21.88;;
35372;SDS011;21476;51.652;7.852;2022-11-20T00:52:41;36.13;;;20.98;;
35372;SDS011;21476;51.652;7.852;2022-11-20T00:55:07;39.28;;;21.10;;
35372;SDS011;21476;51.652;7.852;2022-11-20T00:57:32;39.83;;;23.88;;
35372;SDS011;21476;51.652;7.852;2022-11-20T00:59:58;43.45;;;23.40;;
35372;SDS011;21476;51.652;7.852;2022-11-20T01:02:23;41.72;;;23.25;;
35372;SDS011;21476;51.652;7.852;2022-11-20T01:04:49;43.15;;;21.52;;
35372;SDS011;21476;51.652;7.852;2022-11-20T01:07:15;39.58;;;22.55;;
35372;SDS011;21476;51.652;7.852;2022-11-20T01:09:40;42.15;;;23.52;;
35372;SDS011;21476;51.652;7.852;2022-11-20T01:12:06;36.00;;;20.38;;
35372;SDS011;21476;51.652;7.852;2022-11-20T01:14:31;35.50;;;21.77;;
35372;SDS011;21476;51.652;7.852;2022-11-20T01:16:57;34.90;;;21.05;;
35372;SDS011;21476;51.652;7.852;2022-11-20T01:19:23;34.95;;;21.45;;
35372;SDS011;21476;51.652;7.852;2022-11-20T01:21:52;37.72;;;20.85;;
35372;SDS011;21476;51.652;7.852;2022-11-20T01:24:19;38.15;;;20.30;;
35372;SDS011;21476;51.652;7.852;2022-11-20T01:26:47;34.88;;;18.50;;
35372;SDS011;21476;51.652;7.852;2022-11-20T01:29:32;32.97;;;20.40;;
35372;SDS011;21476;51.652;7.852;2022-11-20T01:31:58;37.88;;;22.38;;
35372;SDS011;21476;51.652;7.852;2022-11-20T01:34:23;37.25;;;21.08;;
35372;SDS011;21476;51.652;7.852;2022-11-20T01:36:50;37.13;;;21.63;;
35372;SDS011;21476;51.652;7.852;2022-11-20T01:39:18;40.22;;;22.80;;
35372;SDS011;21476;51.652;7.852;2022-11-20T01:41:46;40.53;;;21.05;;
35372;SDS011;21476;51.652;7.852;2022-11-20T01:47:16;44.60;;;23.98;;
35372;SDS011;21476;51.652;7.852;2022-11-20T01:49:50;45.90;;;24.38;;
35372;SDS011;21476;51.652;7.852;2022-11-20T01:52:29;49.65;;;25.65;;
35372;SDS011;21476;51.652;7.852;2022-11-20T01:55:24;49.88;;;26.00;;
35372;SDS011;21476;51.652;7.852;2022-11-20T01:57:53;50.20;;;25.98;;
35372;SDS011;21476;51.652;7.852;2022-11-20T02:00:19;51.05;;;26.48;;
35372;SDS011;21476;51.652;7.852;2022-11-20T02:02:48;41.30;;;24.63;;
35372;SDS011;21476;51.652;7.852;2022-11-20T02:05:35;44.63;;;23.33;;
35372;SDS011;21476;51.652;7.852;2022-11-20T02:08:09;42.53;;;22.50;;
35372;SDS011;21476;51.652;7.852;2022-11-20T02:10:35;48.50;;;24.77;;
35372;SDS011;21476;51.652;7.852;2022-11-20T02:13:00;40.67;;;22.42;;
35372;SDS011;21476;51.652;7.852;2022-11-20T02:15:45;41.92;;;24.08;;
35372;SDS011;21476;51.652;7.852;2022-11-20T02:18:12;38.55;;;22.65;;
35372;SDS011;21476;51.652;7.852;2022-11-20T02:20:44;37.10;;;21.00;;
35372;SDS011;21476;51.652;7.852;2022-11-20T02:23:12;30.55;;;21.00;;
35372;SDS011;21476;51.652;7.852;2022-11-20T02:25:46;39.83;;;21.75;;
35372;SDS011;21476;51.652;7.852;2022-11-20T02:28:12;32.28;;;20.85;;
35372;SDS011;21476;51.652;7.852;2022-11-20T02:30:38;36.35;;;20.45;;
35372;SDS011;21476;51.652;7.852;2022-11-20T02:33:03;34.42;;;21.15;;
35372;SDS011;21476;51.652;7.852;2022-11-20T02:37:55;31.15;;;19.40;;
35372;SDS011;21476;51.652;7.852;2022-11-20T02:40:24;32.25;;;20.10;;
35372;SDS011;21476;51.652;7.852;2022-11-20T02:42:53;35.75;;;21.30;;
35372;SDS011;21476;51.652;7.852;2022-11-20T02:45:19;30.30;;;19.55;;
35372;SDS011;21476;51.652;7.852;2022-11-20T02:47:45;30.52;;;19.25;;
35372;SDS011;21476;51.652;7.852;2022-11-20T02:50:10;34.10;;;20.20;;
35372;SDS011;21476;51.652;7.852;2022-11-20T02:52:37;33.13;;;20.10;;
35372;SDS011;21476;51.652;7.852;2022-11-20T02:55:02;30.90;;;19.33;;
35372;SDS011;21476;51.652;7.852;2022-11-20T02:57:28;32.47;;;19.52;;
35372;SDS011;21476;51.652;7.852;2022-11-20T02:59:54;32.40;;;20.20;;
35372;SDS011;21476;51.652;7.852;2022-11-20T03:02:19;31.48;;;18.73;;
35372;SDS011;21476;51.652;7.852;2022-11-20T03:04:45;32.28;;;20.08;;
35372;SDS011;21476;51.652;7.852;2022-11-20T03:07:11;34.83;;;19.52;;
35372;SDS011;21476;51.652;7.852;2022-11-20T03:09:37;29.40;;;18.73;;
35372;SDS011;21476;51.652;7.852;2022-11-20T03:12:02;32.35;;;19.73;;
35372;SDS011;21476;51.652;7.852;2022-11-20T03:14:28;31.27;;;20.55;;
35372;SDS011;21476;51.652;7.852;2022-11-20T03:16:54;30.50;;;19.30;;
35372;SDS011;21476;51.652;7.852;2022-11-20T03:19:20;27.65;;;18.33;;
35372;SDS011;21476;51.652;7.852;2022-11-20T03:21:46;33.45;;;19.38;;
35372;SDS011;21476;51.652;7.852;2022-11-20T03:24:12;29.85;;;19.27;;
35372;SDS011;21476;51.652;7.852;2022-11-20T03:26:38;32.83;;;20.08;;
35372;SDS011;21476;51.652;7.852;2022-11-20T03:29:04;32.05;;;19.35;;
35372;SDS011;21476;51.652;7.852;2022-11-20T03:31:31;34.20;;;20.58;;
35372;SDS011;21476;51.652;7.852;2022-11-20T03:33:59;28.35;;;18.48;;
35372;SDS011;21476;51.652;7.852;2022-11-20T03:36:26;33.65;;;19.60;;
35372;SDS011;21476;51.652;7.852;2022-11-20T03:38:55;33.63;;;20.48;;
35372;SDS011;21476;51.652;7.852;2022-11-20T03:41:23;32.83;;;20.48;;
35372;SDS011;21476;51.652;7.852;2022-11-20T03:43:59;28.60;;;17.30;;
35372;SDS011;21476;51.652;7.852;2022-11-20T03:46:26;27.70;;;18.60;;
35372;SDS011;21476;51.652;7.852;2022-11-20T03:48:52;30.50;;;20.35;;
35372;SDS011;21476;51.652;7.852;2022-11-20T03:51:20;33.40;;;19.52;;
35372;SDS011;21476;51.652;7.852;2022-11-20T03:53:47;31.63;;;19.02;;
35372;SDS011;21476;51.652;7.852;2022-11-20T03:56:15;31.63;;;19.70;;
35372;SDS011;21476;51.652;7.852;2022-11-20T03:58:42;32.25;;;19.27;;
35372;SDS011;21476;51.652;7.852;2022-11-20T04:01:10;30.77;;;20.40;;
35372;SDS011;21476;51.652;7.852;2022-11-20T04:03:37;31.08;;;20.10;;
35372;SDS011;21476;51.652;7.852;2022-11-20T04:06:05;28.48;;;18.85;;
35372;SDS011;21476;51.652;7.852;2022-11-20T04:08:32;29.15;;;19.83;;
35372;SDS011;21476;51.652;7.852;2022-11-20T04:11:15;30.13;;;18.75;;
35372;SDS011;21476;51.652;7.852;2022-11-20T04:13:46;31.00;;;20.15;;
35372;SDS011;21476;51.652;7.852;2022-11-20T04:16:16;32.28;;;19.95;;
35372;SDS011;21476;51.652;7.852;2022-11-20T04:18:43;35.67;;;20.88;;
35372;SDS011;21476;51.652;7.852;2022-11-20T04:21:09;30.58;;;18.67;;
35372;SDS011;21476;51.652;7.852;2022-11-20T04:23:35;28.85;;;18.60;;
35372;SDS011;21476;51.652;7.852;2022-11-20T04:26:11;30.17;;;18.23;;
35372;SDS011;21476;51.652;7.852;2022-11-20T04:28:37;32.88;;;19.65;;
35372;SDS011;21476;51.652;7.852;2022-11-20T04:31:05;36.17;;;21.05;;
35372;SDS011;21476;51.652;7.852;2022-11-20T04:33:32;32.05;;;19.70;;
35372;SDS011;21476;51.652;7.852;2022-11-20T04:36:02;30.83;;;20.60;;
35372;SDS011;21476;51.652;7.852;2022-11-20T04:38:32;36.90;;;20.52;;
35372;SDS011;21476;51.652;7.852;2022-11-20T04:40:59;36.53;;;20.88;;
35372;SDS011;21476;51.652;7.852;2022-11-20T04:43:25;32.50;;;19.98;;
35372;SDS011;21476;51.652;7.852;2022-11-20T04:45:52;30.95;;;19.73;;
35372;SDS011;21476;51.652;7.852;2022-11-20T04:48:18;32.03;;;20.58;;
35372;SDS011;21476;51.652;7.852;2022-11-20T04:50:44;34.85;;;19.83;;
35372;SDS011;21476;51.652;7.852;2022-11-20T04:53:10;29.08;;;18.75;;
35372;SDS011;21476;51.652;7.852;2022-11-20T04:55:35;30.98;;;19.60;;
35372;SDS011;21476;51.652;7.852;2022-11-20T04:58:01;32.08;;;19.45;;
35372;SDS011;21476;51.652;7.852;2022-11-20T05:00:26;28.63;;;19.20;;
35372;SDS011;21476;51.652;7.852;2022-11-20T05:02:52;30.90;;;18.92;;
35372;SDS011;21476;51.652;7.852;2022-11-20T05:05:18;27.25;;;18.13;;
35372;SDS011;21476;51.652;7.852;2022-11-20T05:07:43;27.13;;;18.10;;
35372;SDS011;21476;51.652;7.852;2022-11-20T05:10:09;29.92;;;18.83;;
35372;SDS011;21476;51.652;7.852;2022-11-20T05:12:34;29.30;;;18.40;;
35372;SDS011;21476;51.652;7.852;2022-11-20T05:15:00;26.00;;;16.88;;
35372;SDS011;21476;51.652;7.852;2022-11-20T05:17:26;27.23;;;18.20;;
35372;SDS011;21476;51.652;7.852;2022-11-20T05:19:51;31.33;;;18.10;;
35372;SDS011;21476;51.652;7.852;2022-11-20T05:22:17;28.77;;;18.00;;
35372;SDS011;21476;51.652;7.852;2022-11-20T05:24:42;28.17;;;18.05;;
35372;SDS011;21476;51.652;7.852;2022-11-20T05:27:08;32.30;;;18.15;;
35372;SDS011;21476;51.652;7.852;2022-11-20T05:29:34;26.48;;;17.30;;
35372;SDS011;21476;51.652;7.852;2022-11-20T05:31:59;26.90;;;17.27;;
35372;SDS011;21476;51.652;7.852;2022-11-20T05:34:25;28.33;;;18.02;;
35372;SDS011;21476;51.652;7.852;2022-11-20T05:36:50;27.05;;;18.08;;
35372;SDS011;21476;51.652;7.852;2022-11-20T05:39:16;28.20;;;17.77;;
35372;SDS011;21476;51.652;7.852;2022-11-20T05:41:42;28.33;;;16.75;;
35372;SDS011;21476;51.652;7.852;2022-11-20T05:44:09;26.85;;;17.40;;
35372;SDS011;21476;51.652;7.852;2022-11-20T05:46:35;27.50;;;17.75;;
35372;SDS011;21476;51.652;7.852;2022-11-20T05:49:01;27.60;;;18.17;;
35372;SDS011;21476;51.652;7.852;2022-11-20T05:51:27;27.75;;;17.35;;
35372;SDS011;21476;51.652;7.852;2022-11-20T05:53:53;27.42;;;18.27;;
35372;SDS011;21476;51.652;7.852;2022-11-20T05:56:20;27.83;;;17.83;;
35372;SDS011;21476;51.652;7.852;2022-11-20T05:58:47;29.33;;;17.50;;
35372;SDS011;21476;51.652;7.852;2022-11-20T06:01:14;26.48;;;16.55;;
35372;SDS011;21476;51.652;7.852;2022-11-20T06:03:44;26.63;;;16.05;;
35372;SDS011;21476;51.652;7.852;2022-11-20T06:06:12;28.15;;;16.95;;
35372;SDS011;21476;51.652;7.852;2022-11-20T06:08:39;26.40;;;16.85;;
35372;SDS011;21476;51.652;7.852;2022-11-20T06:11:06;27.83;;;16.45;;
35372;SDS011;21476;51.652;7.852;2022-11-20T06:13:33;27.83;;;17.88;;
35372;SDS011;21476;51.652;7.852;2022-11-20T06:15:59;23.92;;;15.40;;
35372;SDS011;21476;51.652;7.852;2022-11-20T06:18:26;25.98;;;16.77;;
35372;SDS011;21476;51.652;7.852;2022-11-20T06:21:02;27.98;;;17.42;;
35372;SDS011;21476;51.652;7.852;2022-11-20T06:23:30;30.50;;;18.23;;
35372;SDS011;21476;51.652;7.852;2022-11-20T06:25:56;23.20;;;15.63;;
35372;SDS011;21476;51.652;7.852;2022-11-20T06:28:22;24.17;;;15.00;;
35372;SDS011;21476;51.652;7.852;2022-11-20T06:30:48;28.40;;;17.92;;
35372;SDS011;21476;51.652;7.852;2022-11-20T06:33:13;29.55;;;16.92;;
35372;SDS011;21476;51.652;7.852;2022-11-20T06:35:39;26.40;;;15.50;;
35372;SDS011;21476;51.652;7.852;2022-11-20T06:38:05;28.83;;;17.90;;
35372;SDS011;21476;51.652;7.852;2022-11-20T06:40:30;26.02;;;15.90;;
35372;SDS011;21476;51.652;7.852;2022-11-20T06:42:56;26.58;;;15.95;;
35372;SDS011;21476;51.652;7.852;2022-11-20T06:45:21;25.05;;;16.45;;
35372;SDS011;21476;51.652;7.852;2022-11-20T06:47:47;29.20;;;16.30;;
35372;SDS011;21476;51.652;7.852;2022-11-20T06:50:13;29.77;;;16.23;;
35372;SDS011;21476;51.652;7.852;2022-11-20T06:52:38;27.02;;;17.08;;
35372;SDS011;21476;51.652;7.852;2022-11-20T06:55:04;33.40;;;17.48;;
35372;SDS011;21476;51.652;7.852;2022-11-20T06:57:30;29.67;;;17.45;;
35372;SDS011;21476;51.652;7.852;2022-11-20T06:59:55;29.48;;;18.48;;
35372;SDS011;21476;51.652;7.852;2022-11-20T07:02:21;24.83;;;16.45;;
35372;SDS011;21476;51.652;7.852;2022-11-20T07:04:46;29.08;;;17.20;;
35372;SDS011;21476;51.652;7.852;2022-11-20T07:07:12;24.55;;;16.88;;
35372;SDS011;21476;51.652;7.852;2022-11-20T07:09:38;26.17;;;15.38;;
35372;SDS011;21476;51.652;7.852;2022-11-20T07:12:03;30.42;;;18.63;;
35372;SDS011;21476;51.652;7.852;2022-11-20T07:14:29;22.88;;;14.30;;
35372;SDS011;21476;51.652;7.852;2022-11-20T07:16:55;26.50;;;16.50;;
35372;SDS011;21476;51.652;7.852;2022-11-20T07:19:20;29.20;;;15.80;;
35372;SDS011;21476;51.652;7.852;2022-11-20T07:21:46;28.70;;;16.92;;
35372;SDS011;21476;51.652;7.852;2022-11-20T07:24:12;25.60;;;15.25;;
35372;SDS011;21476;51.652;7.852;2022-11-20T07:26:37;28.55;;;17.17;;
35372;SDS011;21476;51.652;7.852;2022-11-20T07:29:03;24.88;;;16.08;;
35372;SDS011;21476;51.652;7.852;2022-11-20T07:31:29;31.10;;;17.95;;
35372;SDS011;21476;51.652;7.852;2022-11-20T07:33:54;23.80;;;15.23;;
35372;SDS011;21476;51.652;7.852;2022-11-20T07:36:20;23.75;;;16.13;;
35372;SDS011;21476;51.652;7.852;2022-11-20T07:38:45;22.05;;;14.52;;
35372;SDS011;21476;51.652;7.852;2022-11-20T07:41:11;23.70;;;14.35;;
35372;SDS011;21476;51.652;7.852;2022-11-20T07:43:37;27.10;;;14.30;;
35372;SDS011;21476;51.652;7.852;2022-11-20T07:46:02;20.58;;;13.73;;
35372;SDS011;21476;51.652;7.852;2022-11-20T07:48:29;20.40;;;14.00;;
35372;SDS011;21476;51.652;7.852;2022-11-20T07:50:55;19.88;;;14.13;;
35372;SDS011;21476;51.652;7.852;2022-11-20T07:53:21;25.20;;;15.90;;
35372;SDS011;21476;51.652;7.852;2022-11-20T07:55:47;21.25;;;14.40;;
35372;SDS011;21476;51.652;7.852;2022-11-20T07:58:13;23.70;;;14.82;;
35372;SDS011;21476;51.652;7.852;2022-11-20T08:00:39;22.35;;;14.40;;
35372;SDS011;21476;51.652;7.852;2022-11-20T08:03:06;25.33;;;16.88;;
35372;SDS011;21476;51.652;7.852;2022-11-20T08:05:32;21.50;;;14.80;;
35372;SDS011;21476;51.652;7.852;2022-11-20T08:07:58;25.83;;;15.82;;
35372;SDS011;21476;51.652;7.852;2022-11-20T08:10:23;23.23;;;16.70;;
35372;SDS011;21476;51.652;7.852;2022-11-20T08:12:50;23.23;;;14.52;;
35372;SDS011;21476;51.652;7.852;2022-11-20T08:15:36;19.92;;;14.30;;
35372;SDS011;21476;51.652;7.852;2022-11-20T08:18:04;21.63;;;15.63;;
35372;SDS011;21476;51.652;7.852;2022-11-20T08:20:35;20.23;;;14.77;;
35372;SDS011;21476;51.652;7.852;2022-11-20T08:23:02;19.65;;;14.85;;
35372;SDS011;21476;51.652;7.852;2022-11-20T08:25:32;18.08;;;13.07;;
35372;SDS011;21476;51.652;7.852;2022-11-20T08:28:00;19.35;;;13.55;;
35372;SDS011;21476;51.652;7.852;2022-11-20T08:30:28;16.83;;;12.98;;
35372;SDS011;21476;51.652;7.852;2022-11-20T08:32:54;17.42;;;12.18;;
35372;SDS011;21476;51.652;7.852;2022-11-20T08:35:25;18.73;;;14.00;;
35372;SDS011;21476;51.652;7.852;2022-11-20T08:37:51;16.15;;;13.35;;
35372;SDS011;21476;51.652;7.852;2022-11-20T08:40:17;19.58;;;12.82;;
35372;SDS011;21476;51.652;7.852;2022-11-20T08:42:46;18.05;;;13.18;;
35372;SDS011;21476;51.652;7.852;2022-11-20T08:45:12;14.77;;;12.07;;
35372;SDS011;21476;51.652;7.852;2022-11-20T08:47:38;19.02;;;12.25;;
35372;SDS011;21476;51.652;7.852;2022-11-20T08:50:04;15.60;;;13.18;;
35372;SDS011;21476;51.652;7.852;2022-11-20T08:52:30;15.25;;;11.80;;
35372;SDS011;21476;51.652;7.852;2022-11-20T08:54:55;16.48;;;12.30;;
35372;SDS011;21476;51.652;7.852;2022-11-20T08:57:21;13.63;;;11.02;;
35372;SDS011;21476;51.652;7.852;2022-11-20T08:59:47;16.92;;;11.95;;
35372;SDS011;21476;51.652;7.852;2022-11-20T09:02:12;14.43;;;11.40;;
35372;SDS011;21476;51.652;7.852;2022-11-20T09:04:38;15.95;;;12.25;;
35372;SDS011;21476;51.652;7.852;2022-11-20T09:07:03;15.18;;;12.38;;
35372;SDS011;21476;51.652;7.852;2022-11-20T09:09:29;15.40;;;12.40;;
35372;SDS011;21476;51.652;7.852;2022-11-20T09:11:55;18.60;;;14.07;;
35372;SDS011;21476;51.652;7.852;2022-11-20T09:14:20;21.83;;;14.48;;
35372;SDS011;21476;51.652;7.852;2022-11-20T09:16:46;19.48;;;13.63;;
35372;SDS011;21476;51.652;7.852;2022-11-20T09:19:12;20.48;;;15.68;;
35372;SDS011;21476;51.652;7.852;2022-11-20T09:21:37;21.55;;;15.70;;
35372;SDS011;21476;51.652;7.852;2022-11-20T09:24:04;18.35;;;13.90;;
35372;SDS011;21476;51.652;7.852;2022-11-20T09:26:30;18.98;;;13.95;;
35372;SDS011;21476;51.652;7.852;2022-11-20T09:28:56;17.73;;;12.82;;
35372;SDS011;21476;51.652;7.852;2022-11-20T09:31:22;16.63;;;12.75;;
35372;SDS011;21476;51.652;7.852;2022-11-20T09:33:49;16.88;;;13.68;;
35372;SDS011;21476;51.652;7.852;2022-11-20T09:36:15;14.05;;;11.07;;
35372;SDS011;21476;51.652;7.852;2022-11-20T09:38:43;18.40;;;12.32;;
35372;SDS011;21476;51.652;7.852;2022-11-20T09:43:53;16.13;;;12.40;;
35372;SDS011;21476;51.652;7.852;2022-11-20T09:51:58;15.45;;;11.10;;
35372;SDS011;21476;51.652;7.852;2022-11-20T09:54:36;14.13;;;11.70;;
35372;SDS011;21476;51.652;7.852;2022-11-20T09:57:11;14.77;;;10.98;;
35372;SDS011;21476;51.652;7.852;2022-11-20T09:59:50;16.27;;;11.45;;
35372;SDS011;21476;51.652;7.852;2022-11-20T10:05:15;16.33;;;11.63;;
35372;SDS011;21476;51.652;7.852;2022-11-20T10:16:10;17.10;;;12.55;;
35372;SDS011;21476;51.652;7.852;2022-11-20T10:19:30;17.55;;;12.25;;
35372;SDS011;21476;51.652;7.852;2022-11-20T10:30:11;18.70;;;12.88;;
35372;SDS011;21476;51.652;7.852;2022-11-20T10:32:39;17.77;;;12.63;;
35372;SDS011;21476;51.652;7.852;2022-11-20T10:35:40;21.25;;;15.02;;
35372;SDS011;21476;51.652;7.852;2022-11-20T10:38:21;18.95;;;13.98;;
35372;SDS011;21476;51.652;7.852;2022-11-20T10:40:57;23.05;;;13.90;;
35372;SDS011;21476;51.652;7.852;2022-11-20T10:43:44;20.60;;;13.95;;
35372;SDS011;21476;51.652;7.852;2022-11-20T10:46:21;20.48;;;14.80;;
35372;SDS011;21476;51.652;7.852;2022-11-20T10:48:48;21.33;;;13.82;;
35372;SDS011;21476;51.652;7.852;2022-11-20T10:54:32;22.27;;;14.90;;
35372;SDS011;21476;51.652;7.852;2022-11-20T10:57:17;21.17;;;14.05;;
35372;SDS011;21476;51.652;7.852;2022-11-20T11:02:31;20.08;;;13.98;;
35372;SDS011;21476;51.652;7.852;2022-11-20T11:05:04;21.50;;;13.65;;
35372;SDS011;21476;51.652;7.852;2022-11-20T11:07:39;19.70;;;13.43;;
35372;SDS011;21476;51.652;7.852;2022-11-20T11:10:14;21.90;;;14.52;;
35372;SDS011;21476;51.652;7.852;2022-11-20T11:12:59;20.88;;;13.93;;
35372;SDS011;21476;51.652;7.852;2022-11-20T11:17:54;19.63;;;13.45;;
35372;SDS011;21476;51.652;7.852;2022-11-20T11:20:22;21.05;;;13.52;;
35372;SDS011;21476;51.652;7.852;2022-11-20T11:22:56;23.25;;;14.68;;
35372;SDS011;21476;51.652;7.852;2022-11-20T11:27:51;24.30;;;15.32;;
35372;SDS011;21476;51.652;7.852;2022-11-20T11:30:20;21.98;;;14.80;;
35372;SDS011;21476;51.652;7.852;2022-11-20T11:32:46;23.60;;;14.77;;
35372;SDS011;21476;51.652;7.852;2022-11-20T11:35:25;21.70;;;14.63;;
35372;SDS011;21476;51.652;7.852;2022-11-20T11:38:03;23.65;;;15.30;;
35372;SDS011;21476;51.652;7.852;2022-11-20T11:40:32;23.23;;;15.65;;
35372;SDS011;21476;51.652;7.852;2022-11-20T11:43:02;22.63;;;15.43;;
35372;SDS011;21476;51.652;7.852;2022-11-20T11:45:55;24.00;;;14.82;;
35372;SDS011;21476;51.652;7.852;2022-11-20T11:48:21;23.40;;;16.15;;
35372;SDS011;21476;51.652;7.852;2022-11-20T11:50:50;25.20;;;17.13;;
35372;SDS011;21476;51.652;7.852;2022-11-20T11:53:17;24.02;;;15.15;;
35372;SDS011;21476;51.652;7.852;2022-11-20T12:01:24;22.77;;;14.88;;
35372;SDS011;21476;51.652;7.852;2022-11-20T12:10:15;25.90;;;16.52;;
35372;SDS011;21476;51.652;7.852;2022-11-20T12:13:00;27.27;;;17.65;;
35372;SDS011;21476;51.652;7.852;2022-11-20T12:15:29;28.70;;;18.40;;
35372;SDS011;21476;51.652;7.852;2022-11-20T12:17:57;27.52;;;18.15;;
35372;SDS011;21476;51.652;7.852;2022-11-20T12:20:25;27.73;;;17.27;;
35372;SDS011;21476;51.652;7.852;2022-11-20T12:25:27;27.20;;;18.10;;
35372;SDS011;21476;51.652;7.852;2022-11-20T12:30:23;25.20;;;16.05;;
35372;SDS011;21476;51.652;7.852;2022-11-20T12:46:58;32.00;;;17.58;;
35372;SDS011;21476;51.652;7.852;2022-11-20T12:49:45;25.20;;;17.02;;
35372;SDS011;21476;51.652;7.852;2022-11-20T12:55:32;24.15;;;17.08;;
35372;SDS011;21476;51.652;7.852;2022-11-20T13:06:58;24.55;;;16.23;;
35372;SDS011;21476;51.652;7.852;2022-11-20T13:09:30;24.48;;;16.58;;
35372;SDS011;21476;51.652;7.852;2022-11-20T13:20:25;30.20;;;19.15;;
35372;SDS011;21476;51.652;7.852;2022-11-20T13:22:52;27.20;;;17.55;;
35372;SDS011;21476;51.652;7.852;2022-11-20T13:28:04;32.40;;;19.48;;
35372;SDS011;21476;51.652;7.852;2022-11-20T13:30:33;27.58;;;17.50;;
35372;SDS011;21476;51.652;7.852;2022-11-20T13:33:06;30.90;;;18.55;;
35372;SDS011;21476;51.652;7.852;2022-11-20T13:40:33;29.02;;;18.38;;
35372;SDS011;21476;51.652;7.852;2022-11-20T13:45:36;29.92;;;20.10;;
35372;SDS011;21476;51.652;7.852;2022-11-20T13:48:03;35.38;;;22.65;;
35372;SDS011;21476;51.652;7.852;2022-11-20T13:50:53;34.45;;;22.58;;
35372;SDS011;21476;51.652;7.852;2022-11-20T13:59:07;32.50;;;20.40;;
35372;SDS011;21476;51.652;7.852;2022-11-20T14:01:35;30.67;;;18.95;;
35372;SDS011;21476;51.652;7.852;2022-11-20T14:04:09;28.05;;;18.63;;
35372;SDS011;21476;51.652;7.852;2022-11-20T14:06:45;35.33;;;19.10;;
35372;SDS011;21476;51.652;7.852;2022-11-20T14:09:25;31.85;;;20.35;;
35372;SDS011;21476;51.652;7.852;2022-11-20T14:11:51;32.00;;;20.88;;
35372;SDS011;21476;51.652;7.852;2022-11-20T14:14:24;32.97;;;21.17;;
35372;SDS011;21476;51.652;7.852;2022-11-20T14:16:52;34.58;;;20.52;;
35372;SDS011;21476;51.652;7.852;2022-11-20T14:21:54;32.75;;;21.02;;
35372;SDS011;21476;51.652;7.852;2022-11-20T14:24:41;32.72;;;21.63;;
35372;SDS011;21476;51.652;7.852;2022-11-20T14:27:14;36.65;;;22.95;;
35372;SDS011;21476;51.652;7.852;2022-11-20T14:29:45;32.03;;;21.38;;
35372;SDS011;21476;51.652;7.852;2022-11-20T14:32:17;36.55;;;21.77;;
35372;SDS011;21476;51.652;7.852;2022-11-20T14:34:45;34.22;;;21.75;;
35372;SDS011;21476;51.652;7.852;2022-11-20T14:37:16;30.80;;;19.48;;
35372;SDS011;21476;51.652;7.852;2022-11-20T14:39:49;31.85;;;19.55;;
35372;SDS011;21476;51.652;7.852;2022-11-20T14:42:23;27.63;;;17.25;;
35372;SDS011;21476;51.652;7.852;2022-11-20T14:44:52;26.85;;;17.65;;
35372;SDS011;21476;51.652;7.852;2022-11-20T14:47:22;28.35;;;18.58;;
35372;SDS011;21476;51.652;7.852;2022-11-20T14:49:53;27.98;;;18.70;;
35372;SDS011;21476;51.652;7.852;2022-11-20T14:52:21;29.42;;;19.70;;
35372;SDS011;21476;51.652;7.852;2022-11-20T14:54:58;27.23;;;17.95;;
35372;SDS011;21476;51.652;7.852;2022-11-20T14:57:28;28.67;;;17.88;;
35372;SDS011;21476;51.652;7.852;2022-11-20T15:00:18;28.45;;;17.23;;
35372;SDS011;21476;51.652;7.852;2022-11-20T15:02:47;26.50;;;16.65;;
35372;SDS011;21476;51.652;7.852;2022-11-20T15:05:14;27.92;;;18.02;;
35372;SDS011;21476;51.652;7.852;2022-11-20T15:07:43;31.80;;;19.50;;
35372;SDS011;21476;51.652;7.852;2022-11-20T15:10:27;29.35;;;18.60;;
35372;SDS011;21476;51.652;7.852;2022-11-20T15:12:54;33.08;;;20.45;;
35372;SDS011;21476;51.652;7.852;2022-11-20T15:15:26;34.22;;;19.02;;
35372;SDS011;21476;51.652;7.852;2022-11-20T15:18:09;36.60;;;19.23;;
35372;SDS011;21476;51.652;7.852;2022-11-20T15:20:38;32.00;;;19.55;;
35372;SDS011;21476;51.652;7.852;2022-11-20T15:23:08;35.63;;;20.88;;
35372;SDS011;21476;51.652;7.852;2022-11-20T15:28:04;33.30;;;19.38;;
35372;SDS011;21476;51.652;7.852;2022-11-20T15:30:35;33.33;;;20.77;;
35372;SDS011;21476;51.652;7.852;2022-11-20T15:33:00;36.10;;;21.10;;
35372;SDS011;21476;51.652;7.852;2022-11-20T15:35:26;32.13;;;19.33;;
35372;SDS011;21476;51.652;7.852;2022-11-20T15:37:51;34.13;;;20.08;;
35372;SDS011;21476;51.652;7.852;2022-11-20T15:40:17;37.78;;;21.15;;
35372;SDS011;21476;51.652;7.852;2022-11-20T15:42:42;34.38;;;20.92;;
35372;SDS011;21476;51.652;7.852;2022-11-20T15:45:27;33.70;;;20.90;;
35372;SDS011;21476;51.652;7.852;2022-11-20T15:48:04;32.00;;;20.02;;
35372;SDS011;21476;51.652;7.852;2022-11-20T15:50:35;35.50;;;21.00;;
35372;SDS011;21476;51.652;7.852;2022-11-20T15:53:03;36.70;;;20.67;;
35372;SDS011;21476;51.652;7.852;2022-11-20T15:55:28;37.63;;;22.30;;
35372;SDS011;21476;51.652;7.852;2022-11-20T15:57:55;35.53;;;21.30;;
35372;SDS011;21476;51.652;7.852;2022-11-20T16:00:21;35.20;;;20.48;;
35372;SDS011;21476;51.652;7.852;2022-11-20T16:02:47;32.08;;;20.27;;
35372;SDS011;21476;51.652;7.852;2022-11-20T16:05:15;31.45;;;19.02;;
35372;SDS011;21476;51.652;7.852;2022-11-20T16:07:42;31.55;;;20.10;;
35372;SDS011;21476;51.652;7.852;2022-11-20T16:10:08;34.75;;;20.85;;
35372;SDS011;21476;51.652;7.852;2022-11-20T16:12:33;33.65;;;20.33;;
35372;SDS011;21476;51.652;7.852;2022-11-20T16:15:17;33.45;;;18.85;;
35372;SDS011;21476;51.652;7.852;2022-11-20T16:18:08;33.10;;;20.92;;
35372;SDS011;21476;51.652;7.852;2022-11-20T16:20:36;34.20;;;20.58;;
35372;SDS011;21476;51.652;7.852;2022-11-20T16:23:02;36.58;;;21.38;;
35372;SDS011;21476;51.652;7.852;2022-11-20T16:25:28;33.70;;;20.02;;
35372;SDS011;21476;51.652;7.852;2022-11-20T16:27:54;35.13;;;21.02;;